sensor_id;sensor_type;location;lat;lon;timestamp;pressure;altitude;pressure_sealevel;temperature;humidity
58295;BME280;45705;55.592;37.460;2022-10-31T00:00:54;97473.53;;;-0.22;83.69
58295;BME280;45705;55.592;37.460;2022-10-31T00:03:20;97466.03;;;-0.20;83.75
58295;BME280;45705;55.592;37.460;2022-10-31T00:05:47;97468.03;;;-0.36;83.47
58295;BME280;45705;55.592;37.460;2022-10-31T00:08:14;97464.44;;;-0.21;83.54
58295;BME280;45705;55.592;37.460;2022-10-31T00:10:41;97464.06;;;-0.38;83.65
58295;BME280;45705;55.592;37.460;2022-10-31T00:13:08;97463.31;;;-0.15;82.85
58295;BME280;45705;55.592;37.460;2022-10-31T00:15:36;97462.44;;;-0.40;83.36
58295;BME280;45705;55.592;37.460;2022-10-31T00:18:02;97440.88;;;-0.14;81.99
58295;BME280;45705;55.592;37.460;2022-10-31T00:20:29;97460.69;;;-0.20;82.32
58295;BME280;45705;55.592;37.460;2022-10-31T00:22:59;97435.91;;;-0.26;82.47
58295;BME280;45705;55.592;37.460;2022-10-31T00:25:25;97452.16;;;-0.22;82.12
58295;BME280;45705;55.592;37.460;2022-10-31T00:27:51;97446.34;;;-0.29;81.69
58295;BME280;45705;55.592;37.460;2022-10-31T00:30:17;97447.34;;;-0.20;81.79
58295;BME280;45705;55.592;37.460;2022-10-31T00:32:43;97447.69;;;-0.32;82.25
58295;BME280;45705;55.592;37.460;2022-10-31T00:35:08;97438.81;;;-0.22;81.82
58295;BME280;45705;55.592;37.460;2022-10-31T00:37:34;97436.13;;;-0.22;80.84
58295;BME280;45705;55.592;37.460;2022-10-31T00:40:00;97435.53;;;-0.14;80.73
58295;BME280;45705;55.592;37.460;2022-10-31T00:42:25;97437.78;;;-0.26;81.17
58295;BME280;45705;55.592;37.460;2022-10-31T00:44:51;97414.81;;;-0.27;81.63
58295;BME280;45705;55.592;37.460;2022-10-31T00:47:19;97434.47;;;-0.13;81.04
58295;BME280;45705;55.592;37.460;2022-10-31T00:49:45;97418.97;;;-0.16;81.25
58295;BME280;45705;55.592;37.460;2022-10-31T00:52:11;97425.78;;;-0.29;80.85
58295;BME280;45705;55.592;37.460;2022-10-31T00:54:37;97419.22;;;-0.42;80.46
58295;BME280;45705;55.592;37.460;2022-10-31T00:57:03;97420.16;;;-0.27;80.29
58295;BME280;45705;55.592;37.460;2022-10-31T00:59:28;97424.81;;;-0.09;80.33
58295;BME280;45705;55.592;37.460;2022-10-31T01:01:54;97416.00;;;-0.09;80.80
58295;BME280;45705;55.592;37.460;2022-10-31T01:04:20;97426.06;;;-0.30;81.64
58295;BME280;45705;55.592;37.460;2022-10-31T01:06:48;97418.53;;;-0.23;81.93
58295;BME280;45705;55.592;37.460;2022-10-31T01:09:15;97428.00;;;-0.07;81.03
58295;BME280;45705;55.592;37.460;2022-10-31T01:11:41;97427.59;;;-0.24;81.23
58295;BME280;45705;55.592;37.460;2022-10-31T01:14:09;97413.34;;;-0.09;80.58
58295;BME280;45705;55.592;37.460;2022-10-31T01:16:35;97426.94;;;-0.06;80.57
58295;BME280;45705;55.592;37.460;2022-10-31T01:19:00;97426.34;;;-0.32;82.09
58295;BME280;45705;55.592;37.460;2022-10-31T01:21:28;97438.81;;;-0.22;81.83
58295;BME280;45705;55.592;37.460;2022-10-31T01:23:58;97421.56;;;-0.35;82.11
58295;BME280;45705;55.592;37.460;2022-10-31T01:26:29;97414.88;;;-0.03;81.48
58295;BME280;45705;55.592;37.460;2022-10-31T01:28:57;97412.94;;;-0.27;83.07
58295;BME280;45705;55.592;37.460;2022-10-31T01:31:25;97410.91;;;-0.40;83.92
58295;BME280;45705;55.592;37.460;2022-10-31T01:33:51;97409.28;;;-0.07;83.25
58295;BME280;45705;55.592;37.460;2022-10-31T01:36:26;97422.91;;;-0.37;84.23
58295;BME280;45705;55.592;37.460;2022-10-31T01:38:55;97417.91;;;-0.44;85.06
58295;BME280;45705;55.592;37.460;2022-10-31T01:41:25;97424.41;;;-0.26;85.80
58295;BME280;45705;55.592;37.460;2022-10-31T01:44:03;97428.25;;;-0.37;86.41
58295;BME280;45705;55.592;37.460;2022-10-31T01:46:53;97419.84;;;-0.55;87.26
58295;BME280;45705;55.592;37.460;2022-10-31T01:49:43;97430.97;;;-0.43;88.17
58295;BME280;45705;55.592;37.460;2022-10-31T01:52:15;97425.94;;;-0.15;87.58
58295;BME280;45705;55.592;37.460;2022-10-31T01:54:46;97418.19;;;-0.51;89.25
58295;BME280;45705;55.592;37.460;2022-10-31T01:57:14;97416.97;;;-0.64;92.73
58295;BME280;45705;55.592;37.460;2022-10-31T01:59:47;97424.41;;;-0.61;94.07
58295;BME280;45705;55.592;37.460;2022-10-31T02:02:16;97422.25;;;-0.58;94.71
58295;BME280;45705;55.592;37.460;2022-10-31T02:04:43;97427.84;;;-0.55;95.48
58295;BME280;45705;55.592;37.460;2022-10-31T02:07:14;97418.19;;;-0.51;97.01
58295;BME280;45705;55.592;37.460;2022-10-31T02:09:42;97431.00;;;-0.48;97.79
58295;BME280;45705;55.592;37.460;2022-10-31T02:12:10;97438.53;;;-0.55;99.88
58295;BME280;45705;55.592;37.460;2022-10-31T02:14:37;97439.63;;;-0.61;100.00
58295;BME280;45705;55.592;37.460;2022-10-31T02:17:03;97452.47;;;-0.63;100.00
58295;BME280;45705;55.592;37.460;2022-10-31T02:22:27;97437.81;;;-0.66;100.00
58295;BME280;45705;55.592;37.460;2022-10-31T02:38:21;97444.38;;;-0.97;100.00
58295;BME280;45705;55.592;37.460;2022-10-31T02:40:51;97438.81;;;-1.01;100.00
58295;BME280;45705;55.592;37.460;2022-10-31T02:43:58;97439.03;;;-0.92;100.00
58295;BME280;45705;55.592;37.460;2022-10-31T02:49:12;97448.16;;;-0.98;100.00
58295;BME280;45705;55.592;37.460;2022-10-31T02:51:43;97440.44;;;-1.05;100.00
58295;BME280;45705;55.592;37.460;2022-10-31T02:54:21;97433.19;;;-1.00;100.00
58295;BME280;45705;55.592;37.460;2022-10-31T02:56:54;97442.56;;;-1.02;100.00
58295;BME280;45705;55.592;37.460;2022-10-31T02:59:23;97444.22;;;-1.16;100.00
58295;BME280;45705;55.592;37.460;2022-10-31T03:01:55;97442.16;;;-1.30;100.00
58295;BME280;45705;55.592;37.460;2022-10-31T03:07:00;97447.84;;;-0.92;100.00
58295;BME280;45705;55.592;37.460;2022-10-31T03:12:07;97452.25;;;-1.22;100.00
58295;BME280;45705;55.592;37.460;2022-10-31T03:14:41;97447.41;;;-1.14;100.00
58295;BME280;45705;55.592;37.460;2022-10-31T03:17:17;97439.69;;;-1.16;100.00
58295;BME280;45705;55.592;37.460;2022-10-31T03:19:48;97438.34;;;-1.13;100.00
58295;BME280;45705;55.592;37.460;2022-10-31T03:22:23;97422.34;;;-1.13;100.00
58295;BME280;45705;55.592;37.460;2022-10-31T03:24:52;97445.81;;;-1.15;100.00
58295;BME280;45705;55.592;37.460;2022-10-31T03:27:25;97440.03;;;-1.28;100.00
58295;BME280;45705;55.592;37.460;2022-10-31T03:29:55;97447.94;;;-1.12;100.00
58295;BME280;45705;55.592;37.460;2022-10-31T03:32:27;97449.00;;;-1.13;100.00
58295;BME280;45705;55.592;37.460;2022-10-31T03:34:58;97429.06;;;-1.26;100.00
58295;BME280;45705;55.592;37.460;2022-10-31T03:37:25;97444.00;;;-1.30;100.00
58295;BME280;45705;55.592;37.460;2022-10-31T03:39:55;97409.66;;;-1.42;100.00
58295;BME280;45705;55.592;37.460;2022-10-31T03:42:25;97443.97;;;-1.20;100.00
58295;BME280;45705;55.592;37.460;2022-10-31T03:45:14;97436.50;;;-1.18;100.00
58295;BME280;45705;55.592;37.460;2022-10-31T03:47:43;97454.41;;;-1.24;100.00
58295;BME280;45705;55.592;37.460;2022-10-31T03:50:11;97455.94;;;-1.12;100.00
58295;BME280;45705;55.592;37.460;2022-10-31T03:52:49;97450.63;;;-1.12;100.00
58295;BME280;45705;55.592;37.460;2022-10-31T03:55:21;97442.13;;;-1.25;100.00
58295;BME280;45705;55.592;37.460;2022-10-31T04:00:18;97450.38;;;-1.16;100.00
58295;BME280;45705;55.592;37.460;2022-10-31T04:02:58;97448.50;;;-1.21;100.00
58295;BME280;45705;55.592;37.460;2022-10-31T04:05:29;97466.84;;;-1.09;100.00
58295;BME280;45705;55.592;37.460;2022-10-31T04:08:01;97460.72;;;-1.04;100.00
58295;BME280;45705;55.592;37.460;2022-10-31T04:10:31;97465.22;;;-1.00;100.00
58295;BME280;45705;55.592;37.460;2022-10-31T04:13:03;97451.44;;;-0.67;100.00
58295;BME280;45705;55.592;37.460;2022-10-31T04:15:38;97457.38;;;-0.81;100.00
58295;BME280;45705;55.592;37.460;2022-10-31T04:18:05;97454.84;;;-1.06;100.00
58295;BME280;45705;55.592;37.460;2022-10-31T04:20:40;97467.94;;;-1.15;100.00
58295;BME280;45705;55.592;37.460;2022-10-31T04:23:22;97474.78;;;-0.93;100.00
58295;BME280;45705;55.592;37.460;2022-10-31T04:25:49;97472.41;;;-0.95;100.00
58295;BME280;45705;55.592;37.460;2022-10-31T04:28:16;97473.47;;;-1.01;100.00
58295;BME280;45705;55.592;37.460;2022-10-31T04:30:42;97475.59;;;-0.93;100.00
58295;BME280;45705;55.592;37.460;2022-10-31T04:33:08;97474.50;;;-0.87;100.00
58295;BME280;45705;55.592;37.460;2022-10-31T04:35:36;97475.59;;;-0.93;100.00
58295;BME280;45705;55.592;37.460;2022-10-31T04:38:01;97482.56;;;-1.02;100.00
58295;BME280;45705;55.592;37.460;2022-10-31T04:40:27;97483.06;;;-0.95;100.00
58295;BME280;45705;55.592;37.460;2022-10-31T04:43:22;97487.06;;;-0.92;100.00
58295;BME280;45705;55.592;37.460;2022-10-31T04:45:48;97492.13;;;-0.96;100.00
58295;BME280;45705;55.592;37.460;2022-10-31T04:48:14;97489.47;;;-0.91;100.00
58295;BME280;45705;55.592;37.460;2022-10-31T04:50:42;97492.16;;;-1.01;100.00
58295;BME280;45705;55.592;37.460;2022-10-31T04:53:08;97492.66;;;-0.89;100.00
58295;BME280;45705;55.592;37.460;2022-10-31T04:55:43;97485.69;;;-0.90;100.00
58295;BME280;45705;55.592;37.460;2022-10-31T04:58:19;97503.06;;;-0.92;100.00
58295;BME280;45705;55.592;37.460;2022-10-31T05:00:44;97509.75;;;-1.00;100.00
58295;BME280;45705;55.592;37.460;2022-10-31T05:03:11;97509.94;;;-0.81;100.00
58295;BME280;45705;55.592;37.460;2022-10-31T05:05:37;97517.19;;;-0.87;100.00
58295;BME280;45705;55.592;37.460;2022-10-31T05:08:03;97513.94;;;-0.78;100.00
58295;BME280;45705;55.592;37.460;2022-10-31T05:10:30;97519.28;;;-0.78;100.00
58295;BME280;45705;55.592;37.460;2022-10-31T05:13:00;97520.97;;;-0.98;100.00
58295;BME280;45705;55.592;37.460;2022-10-31T05:15:45;97536.91;;;-0.83;100.00
58295;BME280;45705;55.592;37.460;2022-10-31T05:18:20;97528.34;;;-0.80;100.00
58295;BME280;45705;55.592;37.460;2022-10-31T05:21:04;97533.13;;;-0.76;100.00
58295;BME280;45705;55.592;37.460;2022-10-31T05:23:34;97526.22;;;-0.77;100.00
58295;BME280;45705;55.592;37.460;2022-10-31T05:26:00;97533.19;;;-0.87;100.00
58295;BME280;45705;55.592;37.460;2022-10-31T05:28:26;97541.16;;;-0.82;100.00
58295;BME280;45705;55.592;37.460;2022-10-31T05:30:53;97544.97;;;-0.93;100.00
58295;BME280;45705;55.592;37.460;2022-10-31T05:33:20;97549.66;;;-0.74;100.00
58295;BME280;45705;55.592;37.460;2022-10-31T05:36:04;97544.13;;;-0.83;100.00
58295;BME280;45705;55.592;37.460;2022-10-31T05:38:30;97543.28;;;-0.84;100.00
58295;BME280;45705;55.592;37.460;2022-10-31T05:41:01;97553.38;;;-0.70;100.00
58295;BME280;45705;55.592;37.460;2022-10-31T05:43:29;97562.75;;;-0.78;100.00
58295;BME280;45705;55.592;37.460;2022-10-31T05:45:56;97557.78;;;-0.95;100.00
58295;BME280;45705;55.592;37.460;2022-10-31T05:49:00;97574.81;;;-0.91;100.00
58295;BME280;45705;55.592;37.460;2022-10-31T05:51:44;97585.94;;;-0.68;100.00
58295;BME280;45705;55.592;37.460;2022-10-31T05:54:10;97578.88;;;-0.44;100.00
58295;BME280;45705;55.592;37.460;2022-10-31T05:56:38;97575.75;;;-0.56;100.00
58295;BME280;45705;55.592;37.460;2022-10-31T05:59:04;97594.97;;;-0.64;100.00
58295;BME280;45705;55.592;37.460;2022-10-31T06:01:30;97608.84;;;-0.52;100.00
58295;BME280;45705;55.592;37.460;2022-10-31T06:04:00;97623.50;;;-0.49;100.00
58295;BME280;45705;55.592;37.460;2022-10-31T06:06:26;97618.31;;;-0.25;100.00
58295;BME280;45705;55.592;37.460;2022-10-31T06:08:52;97609.63;;;-0.51;100.00
58295;BME280;45705;55.592;37.460;2022-10-31T06:11:21;97614.91;;;-0.41;100.00
58295;BME280;45705;55.592;37.460;2022-10-31T06:14:01;97619.44;;;-0.36;100.00
58295;BME280;45705;55.592;37.460;2022-10-31T06:16:50;97633.31;;;-0.34;100.00
58295;BME280;45705;55.592;37.460;2022-10-31T06:19:34;97632.22;;;-0.33;100.00
58295;BME280;45705;55.592;37.460;2022-10-31T06:21:59;97647.72;;;-0.30;100.00
58295;BME280;45705;55.592;37.460;2022-10-31T06:24:25;97647.66;;;-0.20;100.00
58295;BME280;45705;55.592;37.460;2022-10-31T06:27:16;97642.56;;;-0.22;100.00
58295;BME280;45705;55.592;37.460;2022-10-31T06:29:41;97659.34;;;-0.06;100.00
58295;BME280;45705;55.592;37.460;2022-10-31T06:32:12;97662.34;;;-0.17;100.00
58295;BME280;45705;55.592;37.460;2022-10-31T06:34:42;97668.16;;;-0.10;100.00
58295;BME280;45705;55.592;37.460;2022-10-31T06:37:10;97687.13;;;-0.12;100.00
58295;BME280;45705;55.592;37.460;2022-10-31T06:39:38;97690.88;;;-0.08;100.00
58295;BME280;45705;55.592;37.460;2022-10-31T06:42:04;97690.31;;;-0.05;100.00
58295;BME280;45705;55.592;37.460;2022-10-31T06:44:31;97703.66;;;0.01;100.00
58295;BME280;45705;55.592;37.460;2022-10-31T06:47:22;97708.75;;;0.02;100.00
58295;BME280;45705;55.592;37.460;2022-10-31T06:50:05;97706.72;;;0.23;100.00
58295;BME280;45705;55.592;37.460;2022-10-31T06:52:31;97722.84;;;0.08;100.00
58295;BME280;45705;55.592;37.460;2022-10-31T06:54:56;97724.47;;;0.09;100.00
58295;BME280;45705;55.592;37.460;2022-10-31T06:57:22;97727.06;;;0.19;100.00
58295;BME280;45705;55.592;37.460;2022-10-31T06:59:48;97735.66;;;0.16;100.00
58295;BME280;45705;55.592;37.460;2022-10-31T07:02:32;97739.91;;;0.22;100.00
58295;BME280;45705;55.592;37.460;2022-10-31T07:05:00;97736.56;;;0.41;100.00
58295;BME280;45705;55.592;37.460;2022-10-31T07:07:25;97744.56;;;0.46;100.00
58295;BME280;45705;55.592;37.460;2022-10-31T07:09:52;97746.47;;;0.40;100.00
58295;BME280;45705;55.592;37.460;2022-10-31T07:12:23;97751.47;;;0.52;100.00
58295;BME280;45705;55.592;37.460;2022-10-31T07:14:57;97749.72;;;0.76;100.00
58295;BME280;45705;55.592;37.460;2022-10-31T07:17:23;97762.31;;;0.76;100.00
58295;BME280;45705;55.592;37.460;2022-10-31T07:19:53;97778.63;;;0.74;100.00
58295;BME280;45705;55.592;37.460;2022-10-31T07:22:19;97776.66;;;0.90;100.00
58295;BME280;45705;55.592;37.460;2022-10-31T07:24:44;97786.13;;;0.72;100.00
58295;BME280;45705;55.592;37.460;2022-10-31T07:27:13;97778.69;;;0.64;100.00
58295;BME280;45705;55.592;37.460;2022-10-31T07:29:38;97795.34;;;0.51;100.00
58295;BME280;45705;55.592;37.460;2022-10-31T07:32:04;97799.59;;;0.62;100.00
58295;BME280;45705;55.592;37.460;2022-10-31T07:34:32;97808.03;;;0.80;100.00
58295;BME280;45705;55.592;37.460;2022-10-31T07:37:18;97815.50;;;0.77;100.00
58295;BME280;45705;55.592;37.460;2022-10-31T07:39:43;97818.16;;;0.83;100.00
58295;BME280;45705;55.592;37.460;2022-10-31T07:42:09;97829.72;;;1.12;100.00
58295;BME280;45705;55.592;37.460;2022-10-31T07:44:36;97841.00;;;1.09;100.00
58295;BME280;45705;55.592;37.460;2022-10-31T07:47:21;97853.91;;;1.02;100.00
58295;BME280;45705;55.592;37.460;2022-10-31T07:50:05;97856.56;;;1.07;100.00
58295;BME280;45705;55.592;37.460;2022-10-31T07:53:06;97878.59;;;0.89;100.00
58295;BME280;45705;55.592;37.460;2022-10-31T07:55:51;97883.91;;;0.99;100.00
58295;BME280;45705;55.592;37.460;2022-10-31T07:58:18;97884.72;;;0.94;100.00
58295;BME280;45705;55.592;37.460;2022-10-31T08:00:46;97888.19;;;0.95;100.00
58295;BME280;45705;55.592;37.460;2022-10-31T08:03:17;97888.75;;;0.97;100.00
58295;BME280;45705;55.592;37.460;2022-10-31T08:06:01;97887.91;;;0.96;100.00
58295;BME280;45705;55.592;37.460;2022-10-31T08:08:27;97889.53;;;0.97;100.00
58295;BME280;45705;55.592;37.460;2022-10-31T08:10:54;97896.44;;;1.09;100.00
58295;BME280;45705;55.592;37.460;2022-10-31T08:13:20;97911.84;;;1.22;100.00
58295;BME280;45705;55.592;37.460;2022-10-31T08:15:49;97904.66;;;1.17;100.00
58295;BME280;45705;55.592;37.460;2022-10-31T08:18:22;97921.16;;;1.30;100.00
58295;BME280;45705;55.592;37.460;2022-10-31T08:20:49;97915.72;;;1.45;100.00
58295;BME280;45705;55.592;37.460;2022-10-31T08:23:15;97916.22;;;1.52;100.00
58295;BME280;45705;55.592;37.460;2022-10-31T08:25:42;97931.69;;;1.61;100.00
58295;BME280;45705;55.592;37.460;2022-10-31T08:28:10;97939.34;;;1.38;100.00
58295;BME280;45705;55.592;37.460;2022-10-31T08:30:37;97937.88;;;1.56;100.00
58295;BME280;45705;55.592;37.460;2022-10-31T08:33:21;97941.72;;;1.79;100.00
58295;BME280;45705;55.592;37.460;2022-10-31T08:36:05;97949.47;;;1.46;100.00
58295;BME280;45705;55.592;37.460;2022-10-31T08:39:00;97951.66;;;1.79;100.00
58295;BME280;45705;55.592;37.460;2022-10-31T08:41:27;97952.59;;;1.58;100.00
58295;BME280;45705;55.592;37.460;2022-10-31T08:43:53;97955.72;;;1.71;100.00
58295;BME280;45705;55.592;37.460;2022-10-31T08:46:19;97954.59;;;1.77;100.00
58295;BME280;45705;55.592;37.460;2022-10-31T08:48:50;97964.91;;;1.60;100.00
58295;BME280;45705;55.592;37.460;2022-10-31T08:51:17;97972.53;;;1.82;97.92
58295;BME280;45705;55.592;37.460;2022-10-31T08:53:43;97983.25;;;2.11;98.01
58295;BME280;45705;55.592;37.460;2022-10-31T08:56:28;97989.91;;;2.19;95.74
58295;BME280;45705;55.592;37.460;2022-10-31T08:58:54;97970.84;;;2.20;94.25
58295;BME280;45705;55.592;37.460;2022-10-31T09:01:29;97989.91;;;2.19;90.02
58295;BME280;45705;55.592;37.460;2022-10-31T09:03:55;97990.75;;;2.14;88.75
58295;BME280;45705;55.592;37.460;2022-10-31T09:06:21;97985.25;;;2.59;87.32
58295;BME280;45705;55.592;37.460;2022-10-31T09:08:47;97996.50;;;2.31;85.33
58295;BME280;45705;55.592;37.460;2022-10-31T09:11:13;97995.91;;;2.34;85.37
58295;BME280;45705;55.592;37.460;2022-10-31T09:13:57;98001.22;;;2.69;84.53
58295;BME280;45705;55.592;37.460;2022-10-31T09:16:38;98005.31;;;2.61;85.72
58295;BME280;45705;55.592;37.460;2022-10-31T09:19:07;97998.13;;;2.81;86.08
58295;BME280;45705;55.592;37.460;2022-10-31T09:21:32;98004.53;;;2.36;88.40
58295;BME280;45705;55.592;37.460;2022-10-31T09:23:58;98010.84;;;2.16;92.89
58295;BME280;45705;55.592;37.460;2022-10-31T09:26:24;98006.53;;;1.86;97.78
58295;BME280;45705;55.592;37.460;2022-10-31T09:29:10;98011.19;;;2.10;97.70
58295;BME280;45705;55.592;37.460;2022-10-31T09:31:38;98011.34;;;2.48;94.91
58295;BME280;45705;55.592;37.460;2022-10-31T09:34:24;98012.31;;;2.62;90.70
58295;BME280;45705;55.592;37.460;2022-10-31T09:37:02;98024.38;;;2.35;87.90
58295;BME280;45705;55.592;37.460;2022-10-31T09:39:28;98030.97;;;2.14;87.02
58295;BME280;45705;55.592;37.460;2022-10-31T09:45:12;98033.81;;;2.28;86.37
58295;BME280;45705;55.592;37.460;2022-10-31T09:50:48;98042.22;;;2.50;85.69
58295;BME280;45705;55.592;37.460;2022-10-31T09:56:05;98073.44;;;2.36;85.13
58295;BME280;45705;55.592;37.460;2022-10-31T09:58:40;98073.78;;;2.29;84.94
58295;BME280;45705;55.592;37.460;2022-10-31T10:06:53;98095.63;;;2.47;88.92
58295;BME280;45705;55.592;37.460;2022-10-31T10:09:42;98098.13;;;2.67;89.66
58295;BME280;45705;55.592;37.460;2022-10-31T10:15:51;98102.78;;;2.22;90.31
58295;BME280;45705;55.592;37.460;2022-10-31T10:32:22;98148.78;;;2.40;98.68
58295;BME280;45705;55.592;37.460;2022-10-31T10:37:46;98146.22;;;2.24;95.36
58295;BME280;45705;55.592;37.460;2022-10-31T10:40:19;98155.81;;;2.30;94.49
58295;BME280;45705;55.592;37.460;2022-10-31T10:51:55;98158.56;;;2.25;90.81
58295;BME280;45705;55.592;37.460;2022-10-31T10:54:44;98169.81;;;2.22;89.62
58295;BME280;45705;55.592;37.460;2022-10-31T10:59:56;98178.00;;;2.81;87.29
58295;BME280;45705;55.592;37.460;2022-10-31T11:02:31;98171.69;;;2.61;86.46
58295;BME280;45705;55.592;37.460;2022-10-31T11:05:00;98166.59;;;2.60;85.99
58295;BME280;45705;55.592;37.460;2022-10-31T11:07:37;98159.44;;;2.50;86.08
58295;BME280;45705;55.592;37.460;2022-10-31T11:10:12;98175.88;;;2.78;85.96
58295;BME280;45705;55.592;37.460;2022-10-31T11:12:39;98179.81;;;2.56;84.57
58295;BME280;45705;55.592;37.460;2022-10-31T11:15:26;98163.13;;;2.59;84.70
58295;BME280;45705;55.592;37.460;2022-10-31T11:17:55;98172.00;;;2.89;83.46
58295;BME280;45705;55.592;37.460;2022-10-31T11:20:28;98173.78;;;2.69;85.10
58295;BME280;45705;55.592;37.460;2022-10-31T11:25:50;98165.38;;;2.47;84.68
58295;BME280;45705;55.592;37.460;2022-10-31T11:28:16;98185.59;;;2.73;83.92
58295;BME280;45705;55.592;37.460;2022-10-31T11:30:48;98169.22;;;2.70;82.98
58295;BME280;45705;55.592;37.460;2022-10-31T11:33:21;98176.88;;;2.52;84.64
58295;BME280;45705;55.592;37.460;2022-10-31T11:35:48;98186.13;;;2.70;84.43
58295;BME280;45705;55.592;37.460;2022-10-31T11:38:19;98184.41;;;2.85;83.11
58295;BME280;45705;55.592;37.460;2022-10-31T11:43:19;98199.34;;;2.96;84.13
58295;BME280;45705;55.592;37.460;2022-10-31T11:45:44;98199.28;;;2.72;84.75
58295;BME280;45705;55.592;37.460;2022-10-31T11:48:22;98196.53;;;2.43;84.74
58295;BME280;45705;55.592;37.460;2022-10-31T11:50:58;98197.00;;;2.50;85.55
58295;BME280;45705;55.592;37.460;2022-10-31T11:53:29;98209.44;;;2.75;86.15
58295;BME280;45705;55.592;37.460;2022-10-31T11:56:15;98203.00;;;2.76;84.39
58295;BME280;45705;55.592;37.460;2022-10-31T11:58:41;98193.97;;;2.17;86.34
58295;BME280;45705;55.592;37.460;2022-10-31T12:01:31;98228.72;;;2.43;86.93
58295;BME280;45705;55.592;37.460;2022-10-31T12:04:09;98202.63;;;2.53;87.39
58295;BME280;45705;55.592;37.460;2022-10-31T12:06:37;98199.41;;;2.51;88.18
58295;BME280;45705;55.592;37.460;2022-10-31T12:17:22;98207.81;;;2.34;89.40
58295;BME280;45705;55.592;37.460;2022-10-31T12:19:57;98204.59;;;2.38;89.54
58295;BME280;45705;55.592;37.460;2022-10-31T12:30:58;98237.38;;;2.29;90.96
58295;BME280;45705;55.592;37.460;2022-10-31T12:33:50;98235.06;;;2.57;90.16
58295;BME280;45705;55.592;37.460;2022-10-31T12:41:50;98240.09;;;2.69;90.16
58295;BME280;45705;55.592;37.460;2022-10-31T12:47:44;98238.69;;;2.32;94.57
58295;BME280;45705;55.592;37.460;2022-10-31T12:50:25;98227.53;;;2.09;97.12
58295;BME280;45705;55.592;37.460;2022-10-31T12:56:06;98228.28;;;2.25;100.00
58295;BME280;45705;55.592;37.460;2022-10-31T13:01:18;98244.38;;;2.20;99.92
58295;BME280;45705;55.592;37.460;2022-10-31T13:06:18;98249.25;;;2.13;100.00
58295;BME280;45705;55.592;37.460;2022-10-31T13:08:50;98252.38;;;2.30;98.92
58295;BME280;45705;55.592;37.460;2022-10-31T13:11:23;98247.53;;;2.38;97.34
58295;BME280;45705;55.592;37.460;2022-10-31T13:16:36;98268.78;;;2.29;96.43
58295;BME280;45705;55.592;37.460;2022-10-31T13:19:09;98261.56;;;2.19;97.14
58295;BME280;45705;55.592;37.460;2022-10-31T13:24:17;98265.63;;;2.11;97.34
58295;BME280;45705;55.592;37.460;2022-10-31T13:26:50;98272.78;;;2.26;96.15
58295;BME280;45705;55.592;37.460;2022-10-31T13:29:33;98281.81;;;2.46;95.58
58295;BME280;45705;55.592;37.460;2022-10-31T13:32:04;98279.03;;;2.61;95.07
58295;BME280;45705;55.592;37.460;2022-10-31T13:34:37;98267.09;;;2.38;95.99
58295;BME280;45705;55.592;37.460;2022-10-31T13:37:27;98287.78;;;2.32;95.92
58295;BME280;45705;55.592;37.460;2022-10-31T13:43:04;98279.09;;;2.51;95.06
58295;BME280;45705;55.592;37.460;2022-10-31T13:45:31;98291.44;;;2.52;94.69
58295;BME280;45705;55.592;37.460;2022-10-31T13:48:46;98300.50;;;2.61;94.99
58295;BME280;45705;55.592;37.460;2022-10-31T13:51:06;98295.13;;;2.66;94.28
58295;BME280;45705;55.592;37.460;2022-10-31T13:56:20;98297.91;;;2.46;94.75
58295;BME280;45705;55.592;37.460;2022-10-31T13:59:26;98307.00;;;2.55;94.83
58295;BME280;45705;55.592;37.460;2022-10-31T14:02:00;98311.84;;;2.48;95.62
58295;BME280;45705;55.592;37.460;2022-10-31T14:04:38;98318.91;;;2.28;96.33
58295;BME280;45705;55.592;37.460;2022-10-31T14:07:11;98322.09;;;2.41;96.55
58295;BME280;45705;55.592;37.460;2022-10-31T14:09:53;98326.38;;;2.42;96.57
58295;BME280;45705;55.592;37.460;2022-10-31T14:12:43;98332.97;;;2.60;95.65
58295;BME280;45705;55.592;37.460;2022-10-31T14:20:41;98329.34;;;2.35;98.21
58295;BME280;45705;55.592;37.460;2022-10-31T14:28:43;98332.56;;;2.37;99.41
58295;BME280;45705;55.592;37.460;2022-10-31T14:31:41;98322.94;;;2.31;100.00
58295;BME280;45705;55.592;37.460;2022-10-31T14:39:49;98341.66;;;2.46;98.82
58295;BME280;45705;55.592;37.460;2022-10-31T14:51:21;98358.59;;;2.36;100.00
58295;BME280;45705;55.592;37.460;2022-10-31T14:53:55;98365.06;;;2.25;100.00
58295;BME280;45705;55.592;37.460;2022-10-31T14:56:32;98356.97;;;2.35;100.00
58295;BME280;45705;55.592;37.460;2022-10-31T14:59:24;98376.28;;;2.32;100.00
58295;BME280;45705;55.592;37.460;2022-10-31T15:02:00;98382.22;;;2.24;100.00
58295;BME280;45705;55.592;37.460;2022-10-31T15:04:30;98391.88;;;2.20;100.00
58295;BME280;45705;55.592;37.460;2022-10-31T15:07:24;98381.38;;;2.34;100.00
58295;BME280;45705;55.592;37.460;2022-10-31T15:10:02;98387.59;;;2.24;100.00
58295;BME280;45705;55.592;37.460;2022-10-31T15:12:33;98393.16;;;2.38;100.00
58295;BME280;45705;55.592;37.460;2022-10-31T15:15:25;98398.53;;;2.38;100.00
58295;BME280;45705;55.592;37.460;2022-10-31T15:17:57;98390.53;;;2.33;100.00
58295;BME280;45705;55.592;37.460;2022-10-31T15:20:28;98406.59;;;2.43;99.84
58295;BME280;45705;55.592;37.460;2022-10-31T15:22:56;98397.97;;;2.51;98.76
58295;BME280;45705;55.592;37.460;2022-10-31T15:25:25;98385.97;;;2.33;99.00
58295;BME280;45705;55.592;37.460;2022-10-31T15:27:52;98395.59;;;2.34;98.83
58295;BME280;45705;55.592;37.460;2022-10-31T15:30:21;98397.22;;;2.41;98.53
58295;BME280;45705;55.592;37.460;2022-10-31T15:32:47;98405.53;;;2.39;98.49
58295;BME280;45705;55.592;37.460;2022-10-31T15:35:26;98414.94;;;2.31;99.19
58295;BME280;45705;55.592;37.460;2022-10-31T15:37:54;98426.72;;;2.35;98.86
58295;BME280;45705;55.592;37.460;2022-10-31T15:40:22;98425.09;;;2.34;98.63
58295;BME280;45705;55.592;37.460;2022-10-31T15:43:10;98429.41;;;2.41;98.15
58295;BME280;45705;55.592;37.460;2022-10-31T15:45:42;98436.63;;;2.45;97.69